Terminal Aerodrome Forecast
Issued by NWS Atlanta, GA

Home | Current Version | Previous Version | Text Only | Print | Product List | Glossary On
Versions: 1 2 3 4 5 6 7 8 9 10 11 12 13 14 15 16 17
238
FTUS42 KFFC 211128
TAFCSG
TAF
KCSG 211128Z 2112/2212 00000KT P6SM SCT050 BKN250
     FM211400 13006KT P6SM BKN060
     FM211800 16007KT P6SM VCSH BKN035
     FM212100 15004KT 5SM -SHRA BKN025
     FM220000 13004KT 3SM -RA BR OVC015
     FM220200 13003KT 3SM -RA BR OVC007
     FM220600 13003KT 3SM -RA BR OVC003=

USA.gov is the U.S. government's official web portal to all federal, state and local government web resources and services.